Rogue Valley International Medford Airport Medford US
ICAO: KMFR
IATA: MFR
Category: Medium
Scheduled Services: Yes

Elevation: 1335 ft
TransAlt. 18000 ft.

Airport Communications:
CASCADE APP/DEP:124.3
ATIS:127.25
CTAF:119.4
GND:121.8
MC MINNVILLE RDO:122.65
MEDFORD TWR:119.4
UNICOM:122.95

KMFR Zoom In..

Runways:

(A) RW 14 length 8800 ft width 150 ft
ILS 110.30 / hdg 142

(B) RW 32 length 8800 ft width 150 ft
---- / hdg 322

Location; KMFR
Day. 23 / Time. 14.53 Zulu
* Altimeter: 30.20
* Temperature: 02° c. 35.6°f.
* Wind from: 000° Speed 00 kn.
Dewpoint: 01° c.
Visibility: 9 Statute Miles.
Clouds: Overcast 8500 ft.

KMFR 231453Z 00000KT 9SM OVC085 02/01 A3020 RMK AO2 SLP235 T00170011 56009


Wind - Calm.

YouTube Music Video
 
jpsmedia.com for Web Design  worldairports.se 2018   terms of use